createdAt,value
2023-05-08T00:00:18.024Z,13.57
2023-05-08T00:03:19.884Z,12.30
2023-05-08T00:06:21.682Z,13.63
2023-05-08T00:09:23.352Z,11.67
2023-05-08T00:12:25.067Z,13.10
2023-05-08T00:15:26.750Z,13.63
2023-05-08T00:18:28.575Z,12.20
2023-05-08T00:21:31.194Z,13.27
2023-05-08T00:24:33.037Z,11.10
2023-05-08T00:27:34.726Z,11.63
2023-05-08T00:30:36.778Z,13.07
2023-05-08T00:33:38.442Z,15.00
2023-05-08T00:36:41.020Z,12.43
2023-05-08T00:39:42.964Z,13.00
2023-05-08T00:42:44.885Z,13.20
2023-05-08T00:45:46.775Z,13.03
2023-05-08T00:48:48.807Z,11.87
2023-05-08T00:51:52.636Z,12.10
2023-05-08T00:54:55.334Z,13.83
2023-05-08T00:57:57.378Z,13.37
2023-05-08T01:01:00.464Z,11.40
2023-05-08T01:04:03.765Z,13.33
2023-05-08T01:07:05.565Z,11.17
2023-05-08T01:10:07.754Z,10.80
2023-05-08T01:13:34.815Z,14.30
2023-05-08T01:16:56.536Z,11.10
2023-05-08T01:20:20.018Z,11.87
2023-05-08T01:23:49.427Z,10.80
2023-05-08T01:27:03.184Z,13.10
2023-05-08T01:30:35.285Z,10.23
2023-05-08T01:33:47.299Z,11.07
2023-05-08T01:36:58.560Z,12.13
2023-05-08T01:40:21.680Z,11.63
2023-05-08T01:43:28.970Z,14.13
2023-05-08T01:46:33.079Z,11.33
2023-05-08T01:49:50.320Z,10.00
2023-05-08T01:53:02.251Z,14.63
2023-05-08T01:56:09.524Z,9.83
2023-05-08T01:59:17.011Z,11.83
2023-05-08T02:02:19.602Z,9.67
2023-05-08T02:05:23.524Z,10.93
2023-05-08T02:08:26.789Z,10.70
2023-05-08T02:11:31.793Z,11.13
2023-05-08T02:14:34.780Z,11.30
2023-05-08T02:17:39.631Z,10.63
2023-05-08T02:20:42.069Z,9.93
2023-05-08T02:23:46.682Z,9.33
2023-05-08T02:26:49.874Z,9.83
2023-05-08T02:29:52.354Z,10.07
2023-05-08T02:32:57.518Z,10.17
2023-05-08T02:36:02.276Z,11.80
2023-05-08T02:39:05.696Z,10.13
2023-05-08T02:42:08.177Z,12.60
2023-05-08T02:45:12.081Z,10.60
2023-05-08T02:48:28.370Z,8.23
2023-05-08T02:51:50.528Z,11.30
2023-05-08T02:55:03.378Z,10.10
2023-05-08T02:58:11.854Z,10.70
2023-05-08T03:01:27.359Z,9.60
2023-05-08T03:04:34.810Z,10.27
2023-05-08T03:07:39.942Z,10.67
2023-05-08T03:10:45.004Z,9.33
2023-05-08T03:13:49.519Z,11.03
2023-05-08T03:16:55.196Z,12.00
2023-05-08T03:20:01.440Z,12.73
2023-05-08T03:23:04.602Z,11.93
2023-05-08T03:26:07.648Z,9.77
2023-05-08T03:29:10.358Z,10.97
2023-05-08T03:32:14.072Z,10.57
2023-05-08T03:35:17.601Z,11.63
2023-05-08T03:38:19.853Z,11.97
2023-05-08T03:41:22.445Z,11.97
2023-05-08T03:44:25.535Z,13.37
2023-05-08T03:47:28.591Z,12.23
2023-05-08T03:50:32.311Z,11.67
2023-05-08T03:53:35.300Z,10.13
2023-05-08T03:56:38.611Z,11.20
2023-05-08T04:00:02.801Z,12.20
2023-05-08T04:03:33.333Z,10.60
2023-05-08T04:06:48.598Z,10.60
2023-05-08T04:10:13.523Z,13.53
2023-05-08T04:13:20.712Z,14.10
2023-05-08T04:16:26.871Z,11.70
2023-05-08T04:19:35.929Z,14.03
2023-05-08T04:22:40.624Z,11.07
2023-05-08T04:25:44.098Z,11.87
2023-05-08T04:28:49.408Z,11.80
2023-05-08T04:31:51.841Z,11.47
2023-05-08T04:34:55.144Z,13.13
2023-05-08T04:37:58.944Z,14.80
2023-05-08T04:41:00.799Z,11.90
2023-05-08T04:44:03.836Z,11.57
2023-05-08T04:47:05.825Z,10.97
2023-05-08T04:50:08.149Z,14.37
2023-05-08T04:53:10.829Z,12.27
2023-05-08T04:56:12.659Z,11.77
2023-05-08T04:59:16.112Z,11.63
2023-05-08T05:02:18.392Z,12.03
2023-05-08T05:05:21.434Z,20.93
2023-05-08T05:08:23.287Z,13.70
2023-05-08T05:11:25.069Z,12.67
2023-05-08T05:14:27.391Z,11.27
2023-05-08T05:17:31.174Z,9.70
2023-05-08T05:20:32.942Z,10.70
2023-05-08T05:23:34.879Z,10.97
2023-05-08T05:26:37.194Z,12.77
2023-05-08T05:29:39.518Z,12.63
2023-05-08T05:32:41.526Z,14.47
2023-05-08T05:35:44.201Z,16.03
2023-05-08T05:38:46.162Z,11.47
2023-05-08T05:41:47.915Z,14.10
2023-05-08T05:44:49.849Z,11.60
2023-05-08T05:47:53.955Z,13.53
2023-05-08T05:50:57.858Z,14.27
2023-05-08T05:53:59.795Z,13.93
2023-05-08T05:57:01.727Z,13.33
2023-05-08T06:00:05.838Z,11.90
2023-05-08T06:03:16.145Z,12.80
2023-05-08T06:06:18.097Z,12.47
2023-05-08T06:09:20.376Z,12.17
2023-05-08T06:12:22.604Z,12.70
2023-05-08T06:15:24.424Z,10.53
2023-05-08T06:18:26.676Z,14.97
2023-05-08T06:21:28.616Z,13.53
2023-05-08T06:24:30.566Z,15.50
2023-05-08T06:27:32.359Z,16.03
2023-05-08T06:30:35.353Z,12.97
2023-05-08T06:33:37.274Z,13.00
2023-05-08T06:36:38.957Z,12.37
2023-05-08T06:39:40.740Z,11.97
2023-05-08T06:42:42.467Z,12.33
2023-05-08T06:45:45.619Z,16.33
2023-05-08T06:48:47.501Z,13.37
2023-05-08T06:51:49.260Z,14.53
2023-05-08T06:54:51.112Z,13.30
2023-05-08T06:57:52.783Z,13.07
2023-05-08T07:00:54.438Z,15.50
2023-05-08T07:03:56.376Z,12.97
2023-05-08T07:06:58.075Z,13.23
2023-05-08T07:09:59.818Z,14.30
2023-05-08T07:13:01.584Z,14.97
2023-05-08T07:16:05.221Z,15.03
2023-05-08T07:19:07.048Z,14.07
2023-05-08T07:22:08.851Z,10.80
2023-05-08T07:25:10.916Z,16.07
2023-05-08T07:28:13.674Z,13.40
2023-05-08T07:31:15.452Z,12.57
2023-05-08T07:34:17.326Z,14.70
2023-05-08T07:37:19.127Z,12.77
2023-05-08T07:40:21.044Z,14.40
2023-05-08T07:43:23.922Z,13.53
2023-05-08T07:46:25.793Z,14.37
2023-05-08T07:49:27.572Z,12.97
2023-05-08T07:52:29.382Z,13.87
2023-05-08T07:55:31.116Z,15.33
2023-05-08T07:58:37.002Z,15.70
2023-05-08T08:01:39.545Z,13.10
2023-05-08T08:04:41.272Z,12.43
2023-05-08T08:07:43.045Z,12.90
2023-05-08T08:10:44.774Z,15.00
2023-05-08T08:13:46.554Z,12.80
2023-05-08T08:16:48.362Z,14.50
2023-05-08T08:19:50.392Z,15.63
2023-05-08T08:22:52.315Z,13.80
2023-05-08T08:25:54.315Z,14.50
2023-05-08T08:28:56.379Z,14.60
2023-05-08T08:31:58.141Z,14.90
2023-05-08T08:34:59.818Z,14.07
2023-05-08T08:38:02.277Z,13.37
2023-05-08T08:41:04.163Z,13.03
2023-05-08T08:44:06.466Z,15.47
2023-05-08T08:47:10.745Z,13.47
2023-05-08T08:50:15.131Z,15.60
2023-05-08T08:53:28.697Z,14.23
2023-05-08T08:56:34.001Z,13.10
2023-05-08T08:59:38.610Z,12.40
2023-05-08T09:02:40.493Z,14.23
2023-05-08T09:05:43.498Z,14.97
2023-05-08T09:08:45.310Z,16.30
2023-05-08T09:11:47.448Z,11.17
2023-05-08T09:14:50.074Z,12.17
2023-05-08T09:17:51.827Z,10.23
2023-05-08T09:20:53.802Z,13.03
2023-05-08T09:24:03.235Z,11.53
2023-05-08T09:27:20.946Z,9.67
2023-05-08T09:30:22.791Z,8.93
2023-05-08T09:33:26.945Z,8.73
2023-05-08T09:36:29.044Z,11.93
2023-05-08T09:39:31.069Z,9.90
2023-05-08T09:42:38.773Z,8.00
2023-05-08T09:45:41.497Z,7.47
2023-05-08T09:48:43.205Z,8.47
2023-05-08T09:51:54.490Z,11.10
2023-05-08T09:55:06.790Z,7.50
2023-05-08T09:58:09.012Z,11.43
2023-05-08T10:01:30.744Z,8.90
2023-05-08T10:04:37.510Z,8.50
2023-05-08T10:07:39.295Z,10.97
2023-05-08T10:10:40.974Z,10.67
2023-05-08T10:13:46.897Z,8.43
2023-05-08T10:16:54.385Z,12.47
2023-05-08T10:20:02.707Z,8.93
2023-05-08T10:23:14.030Z,4.90
2023-05-08T10:26:30.387Z,6.00
2023-05-08T10:29:47.182Z,7.57
2023-05-08T10:32:52.672Z,4.97
2023-05-08T10:35:54.580Z,4.75
2023-05-08T10:38:58.671Z,4.73
2023-05-08T10:42:00.588Z,5.00
2023-05-08T10:45:05.153Z,6.18
2023-05-08T10:48:27.857Z,4.45
2023-05-08T10:51:45.611Z,4.25
2023-05-08T10:55:24.948Z,3.60
2023-05-08T10:58:34.203Z,3.43
2023-05-08T11:01:39.112Z,4.75
2023-05-08T11:04:41.046Z,6.95
2023-05-08T11:07:59.548Z,5.50
2023-05-08T11:11:01.903Z,3.92
2023-05-08T11:14:13.460Z,3.35
2023-05-08T11:17:23.665Z,5.45
2023-05-08T11:20:39.250Z,4.75
2023-05-08T11:23:41.115Z,4.25
2023-05-08T11:26:49.007Z,3.60
2023-05-08T11:30:25.478Z,3.30
2023-05-08T11:33:37.648Z,3.60
2023-05-08T11:36:39.363Z,5.45
2023-05-08T11:39:41.103Z,2.42
2023-05-08T11:42:42.818Z,2.25
2023-05-08T11:45:45.612Z,2.45
2023-05-08T11:48:47.587Z,2.78
2023-05-08T11:51:54.938Z,2.33
2023-05-08T11:54:56.654Z,2.92
2023-05-08T11:57:58.310Z,2.83
2023-05-08T12:01:00.345Z,7.43
2023-05-08T12:04:07.833Z,2.35
2023-05-08T12:07:09.595Z,3.70
2023-05-08T12:10:11.589Z,4.07
2023-05-08T12:13:20.648Z,5.07
2023-05-08T12:16:26.129Z,4.13
2023-05-08T12:19:27.878Z,3.22
2023-05-08T12:22:29.595Z,2.35
2023-05-08T12:25:31.385Z,2.15
2023-05-08T12:28:33.718Z,2.65
2023-05-08T12:31:38.515Z,3.65
2023-05-08T12:34:40.362Z,2.42
2023-05-08T12:37:42.176Z,4.63
2023-05-08T12:40:45.949Z,6.82
2023-05-08T12:43:48.956Z,3.38
2023-05-08T12:46:55.515Z,3.47
2023-05-08T12:49:58.274Z,4.22
2023-05-08T12:53:05.225Z,2.25
2023-05-08T12:56:07.281Z,2.65
2023-05-08T12:59:08.960Z,2.90
2023-05-08T13:02:13.534Z,3.72
2023-05-08T13:05:19.627Z,3.30
2023-05-08T13:08:29.700Z,3.40
2023-05-08T13:11:34.719Z,3.13
2023-05-08T13:14:36.369Z,2.40
2023-05-08T13:17:38.217Z,3.53
2023-05-08T13:20:40.022Z,2.58
2023-05-08T13:23:43.319Z,6.35
2023-05-08T13:26:45.998Z,3.90
2023-05-08T13:29:47.704Z,2.88
2023-05-08T13:32:50.705Z,2.83
2023-05-08T13:35:53.442Z,2.63
2023-05-08T13:38:57.296Z,2.45
2023-05-08T13:41:59.111Z,3.00
2023-05-08T13:45:01.582Z,3.05
2023-05-08T13:48:03.466Z,5.70
2023-05-08T13:51:06.026Z,2.00
2023-05-08T13:54:07.694Z,3.72
2023-05-08T13:57:09.598Z,3.63
2023-05-08T14:00:11.981Z,3.40
2023-05-08T14:03:13.788Z,5.13
2023-05-08T14:06:15.610Z,2.55
2023-05-08T14:09:17.427Z,2.20
2023-05-08T14:12:19.161Z,3.25
2023-05-08T14:15:22.202Z,4.57
2023-05-08T14:18:25.108Z,2.55
2023-05-08T14:21:27.532Z,2.22
2023-05-08T14:24:29.272Z,3.10
2023-05-08T14:27:31.239Z,2.20
2023-05-08T14:30:32.896Z,3.17
2023-05-08T14:33:34.575Z,2.55
2023-05-08T14:36:36.668Z,2.38
2023-05-08T14:39:38.434Z,2.28
2023-05-08T14:42:40.116Z,4.75
2023-05-08T14:45:41.759Z,3.58
2023-05-08T14:48:43.459Z,3.53
2023-05-08T14:51:45.209Z,3.67
2023-05-08T14:54:52.949Z,3.45
2023-05-08T14:57:55.153Z,4.68
2023-05-08T15:00:56.799Z,2.70
2023-05-08T15:03:58.554Z,3.55
2023-05-08T15:07:00.272Z,3.50
2023-05-08T15:10:02.979Z,5.57
2023-05-08T15:13:04.789Z,8.50
2023-05-08T15:16:07.328Z,7.22
2023-05-08T15:19:09.409Z,6.10
2023-05-08T15:22:11.874Z,6.75
2023-05-08T15:25:13.768Z,8.15
2023-05-08T15:28:15.556Z,11.57
2023-05-08T15:31:17.810Z,8.55
2023-05-08T15:34:19.513Z,8.38
2023-05-08T15:37:21.573Z,9.23
2023-05-08T15:40:23.265Z,13.07
2023-05-08T15:43:25.024Z,8.93
2023-05-08T15:46:26.664Z,10.48
2023-05-08T15:49:28.354Z,9.55
2023-05-08T15:52:30.157Z,10.18
2023-05-08T15:55:31.854Z,8.63
2023-05-08T15:58:34.557Z,8.48
2023-05-08T16:01:36.253Z,8.65
2023-05-08T16:04:37.935Z,6.72
2023-05-08T16:07:40.174Z,8.18
2023-05-08T16:10:42.123Z,7.75
2023-05-08T16:13:43.950Z,11.35
2023-05-08T16:16:45.971Z,9.43
2023-05-08T16:19:47.650Z,8.45
2023-05-08T16:22:53.998Z,8.55
2023-05-08T16:25:55.663Z,6.88
2023-05-08T16:28:57.356Z,10.35
2023-05-08T16:31:59.166Z,8.57
2023-05-08T16:35:00.910Z,7.30
2023-05-08T16:38:03.591Z,8.95
2023-05-08T16:41:07.162Z,5.63
2023-05-08T16:44:08.846Z,8.00
2023-05-08T16:47:10.725Z,5.93
2023-05-08T16:50:12.577Z,6.28
2023-05-08T16:53:14.269Z,6.38
2023-05-08T16:56:15.947Z,4.88
2023-05-08T16:59:17.676Z,9.27
2023-05-08T17:02:19.549Z,5.90
2023-05-08T17:05:21.415Z,6.88
2023-05-08T17:08:23.085Z,6.95
2023-05-08T17:11:24.728Z,5.65
2023-05-08T17:14:26.762Z,5.32
2023-05-08T17:17:28.558Z,6.32
2023-05-08T17:20:30.287Z,5.40
2023-05-08T17:23:31.953Z,7.65
2023-05-08T17:26:34.453Z,11.48
2023-05-08T17:29:37.727Z,7.32
2023-05-08T17:32:39.606Z,8.27
2023-05-08T17:35:41.527Z,6.70
2023-05-08T17:38:45.858Z,6.43
2023-05-08T17:41:49.336Z,6.15
2023-05-08T17:44:50.993Z,9.35
2023-05-08T17:47:52.838Z,5.03
2023-05-08T17:50:54.721Z,8.05
2023-05-08T17:53:56.596Z,4.82
2023-05-08T17:56:58.256Z,5.25
2023-05-08T17:59:59.944Z,5.53
2023-05-08T18:03:01.950Z,3.30
2023-05-08T18:06:03.952Z,3.47
2023-05-08T18:09:08.966Z,3.70
2023-05-08T18:12:10.921Z,3.25
2023-05-08T18:15:12.867Z,4.30
2023-05-08T18:18:14.513Z,2.60
2023-05-08T18:21:16.284Z,2.65
2023-05-08T18:24:18.048Z,3.13
2023-05-08T18:27:19.779Z,2.13
2023-05-08T18:30:21.482Z,2.50
2023-05-08T18:33:23.218Z,7.67
2023-05-08T18:36:25.314Z,3.70
2023-05-08T18:39:27.025Z,3.60
2023-05-08T18:42:28.749Z,3.50
2023-05-08T18:45:30.854Z,3.20
2023-05-08T18:48:32.579Z,5.57
2023-05-08T18:51:34.271Z,3.90
2023-05-08T18:54:35.949Z,4.47
2023-05-08T18:57:37.823Z,4.75
2023-05-08T19:00:39.824Z,4.90
2023-05-08T19:03:41.614Z,4.70
2023-05-08T19:06:43.650Z,4.43
2023-05-08T19:09:45.346Z,5.47
2023-05-08T19:12:47.192Z,4.03
2023-05-08T19:15:48.966Z,4.77
2023-05-08T19:18:51.110Z,7.07
2023-05-08T19:21:52.800Z,5.43
2023-05-08T19:24:54.465Z,7.30
2023-05-08T19:27:57.248Z,4.80
2023-05-08T19:30:58.955Z,4.57
2023-05-08T19:34:00.800Z,6.63
2023-05-08T19:37:02.534Z,8.93
2023-05-08T19:40:05.371Z,4.93
2023-05-08T19:43:07.126Z,6.23
2023-05-08T19:46:08.850Z,4.73
2023-05-08T19:49:10.566Z,4.87
2023-05-08T19:52:12.233Z,5.87
2023-05-08T19:55:14.884Z,6.20
2023-05-08T19:58:17.731Z,6.83
2023-05-08T20:01:19.481Z,6.13
2023-05-08T20:04:21.161Z,10.77
2023-05-08T20:07:22.892Z,5.20
2023-05-08T20:10:24.789Z,6.47
2023-05-08T20:13:26.740Z,6.63
2023-05-08T20:16:28.542Z,7.43
2023-05-08T20:19:30.308Z,7.87
2023-05-08T20:22:32.094Z,6.47
2023-05-08T20:25:33.828Z,6.67
2023-05-08T20:28:35.644Z,5.10
2023-05-08T20:31:37.360Z,6.23
2023-05-08T20:34:39.084Z,4.80
2023-05-08T20:37:45.055Z,6.20
2023-05-08T20:40:46.873Z,6.10
2023-05-08T20:43:48.549Z,6.50
2023-05-08T20:46:51.256Z,9.50
2023-05-08T20:49:52.931Z,7.03
2023-05-08T20:52:54.753Z,7.80
2023-05-08T20:56:04.268Z,6.27
2023-05-08T20:59:05.967Z,5.30
2023-05-08T21:02:07.722Z,7.30
2023-05-08T21:05:09.711Z,7.27
2023-05-08T21:08:11.453Z,7.00
2023-05-08T21:11:13.163Z,5.20
2023-05-08T21:14:14.867Z,7.87
2023-05-08T21:17:16.704Z,10.57
2023-05-08T21:20:20.264Z,10.40
2023-05-08T21:23:22.272Z,6.80
2023-05-08T21:26:23.958Z,6.73
2023-05-08T21:29:25.871Z,10.33
2023-05-08T21:32:27.747Z,5.33
2023-05-08T21:35:29.532Z,7.47
2023-05-08T21:38:31.199Z,8.50
2023-05-08T21:41:32.952Z,6.67
2023-05-08T21:44:34.669Z,8.10
2023-05-08T21:47:36.425Z,6.83
2023-05-08T21:50:38.124Z,6.67
2023-05-08T21:53:39.800Z,7.40
2023-05-08T21:56:41.480Z,10.17
2023-05-08T21:59:43.245Z,10.40
2023-05-08T22:02:45.042Z,9.03
2023-05-08T22:05:46.915Z,8.70
2023-05-08T22:08:48.617Z,6.43
2023-05-08T22:11:50.898Z,8.23
2023-05-08T22:14:52.581Z,10.07
2023-05-08T22:17:55.831Z,6.27
2023-05-08T22:20:57.685Z,8.50
2023-05-08T22:23:59.394Z,9.67
2023-05-08T22:27:01.099Z,10.17
2023-05-08T22:30:04.678Z,8.20
2023-05-08T22:33:06.576Z,8.27
2023-05-08T22:36:09.873Z,7.50
2023-05-08T22:39:11.653Z,11.57
2023-05-08T22:42:13.652Z,6.10
2023-05-08T22:45:15.724Z,10.40
2023-05-08T22:48:17.830Z,7.83
2023-05-08T22:51:19.922Z,7.30
2023-05-08T22:54:21.659Z,8.33
2023-05-08T22:57:23.321Z,9.80
2023-05-08T23:00:24.986Z,8.27
2023-05-08T23:03:26.844Z,9.10
2023-05-08T23:06:28.530Z,9.10
2023-05-08T23:09:30.791Z,8.63
2023-05-08T23:12:32.502Z,6.93
2023-05-08T23:15:34.219Z,9.73
2023-05-08T23:18:35.951Z,7.30
2023-05-08T23:21:37.605Z,8.47
2023-05-08T23:24:39.399Z,7.10
2023-05-08T23:27:41.236Z,7.97
2023-05-08T23:30:42.912Z,7.40
2023-05-08T23:33:44.573Z,7.53
2023-05-08T23:36:46.391Z,6.30
2023-05-08T23:39:48.041Z,7.07
2023-05-08T23:42:49.703Z,10.17
2023-05-08T23:45:51.365Z,6.03
2023-05-08T23:48:53.070Z,7.47
2023-05-08T23:51:54.779Z,6.97
2023-05-08T23:54:56.430Z,10.67
2023-05-08T23:57:58.105Z,7.20
